Time;durP1;ratioP1;P1;durP2;ratioP2;P2;SDS_P1;SDS_P2;PMS_P1;PMS_P2;Temp;Humidity;BMP_temperature;BMP_pressure;BME280_temperature;BME280_humidity;BME280_pressure;Samples;Min_cycle;Max_cycle;Signal;HPM_P1;HPM_P2
2023/09/06 00:00:00;;;;;;;;;;;;;;;-145.06;0.00;60892.56;6092335;22;19907;-93
2023/09/06 00:02:41;;;;;;;;;;;;;;;-145.06;0.00;60892.56;6092473;22;19970;-92
2023/09/06 00:05:23;;;;;;;;;;;;;;;-145.06;0.00;60892.56;6091782;22;20170;-93
2023/09/06 00:08:02;;;;;;;;;;;;;;;-145.06;0.00;60892.56;6092327;22;19914;-94
2023/09/06 00:10:49;;;;;;;;;;;;;;;-145.06;0.00;60892.56;6092233;22;19922;-93
2023/09/06 00:13:28;;;;;;;;;;;;;;;-145.06;0.00;60892.56;6092417;22;19907;-93
2023/09/06 00:16:12;;;;;;;;;;;;;;;-145.06;0.00;60892.56;6092699;22;19907;-92
2023/09/06 00:18:59;;;;;;;;;;;;;;;-145.06;0.00;60892.56;6091460;22;19907;-93
2023/09/06 00:21:42;;;;;;;;;;;;;;;-145.06;0.00;60892.56;6092031;22;19951;-94
2023/09/06 00:24:22;;;;;;;;;;;;;;;-145.06;0.00;60892.56;6092290;22;19907;-93
2023/09/06 00:27:04;;;;;;;;;;;;;;;-145.06;0.00;60892.56;6092240;22;19911;-92
2023/09/06 00:29:46;;;;;;;;;;;;;;;-145.06;0.00;60892.56;6091842;22;19911;-92
2023/09/06 00:32:25;;;;;;;;;;;;;;;-145.06;0.00;60892.56;6091773;22;19906;-93
2023/09/06 00:35:04;;;;;;;;;;;;;;;-145.06;0.00;60892.56;6092138;22;20469;-92
2023/09/06 00:37:42;;;;;;;;;;;;;;;-145.06;0.00;60892.56;6092957;22;19911;-93
2023/09/06 00:40:22;;;;;;;;;;;;;;;-145.06;0.00;60892.56;6091869;22;19907;-92
2023/09/06 00:43:00;;;;;;;;;;;;;;;-145.06;0.00;60892.56;6091131;22;19926;-91
2023/09/06 00:45:53;;;;;;;;;;;;;;;-145.06;0.00;60892.56;6091726;22;20274;-92
2023/09/06 00:48:35;;;;;;;;;;;;;;;-145.06;0.00;60892.56;6091934;22;19938;-93
2023/09/06 00:51:14;;;;;;;;;;;;;;;-145.06;0.00;60892.56;6092156;22;20226;-92
2023/09/06 00:53:53;;;;;;;;;;;;;;;-145.06;0.00;60892.56;6091641;22;19911;-92
2023/09/06 00:56:32;;;;;;;;;;;;;;;-145.06;0.00;60892.56;6092052;22;19969;-93
2023/09/06 00:59:11;;;;;;;;;;;;;;;-145.06;0.00;60892.56;6092165;22;19907;-93
2023/09/06 01:01:51;;;;;;;;;;;;;;;-145.06;0.00;60892.56;6091793;22;20459;-93
2023/09/06 01:04:30;;;;;;;;;;;;;;;-145.06;0.00;60892.56;6091137;22;19907;-93
2023/09/06 01:07:10;;;;;;;;;;;;;;;-145.06;0.00;60892.56;6091450;22;19911;-92
2023/09/06 01:09:49;;;;;;;;;;;;;;;-145.06;0.00;60892.56;6091219;22;20344;-92
2023/09/06 01:12:28;;;;;;;;;;;;;;;-145.06;0.00;60892.56;6090501;22;20213;-93
2023/09/06 01:15:08;;;;;;;;;;;;;;;-145.06;0.00;60892.56;6090912;22;19907;-91
2023/09/06 01:17:47;;;;;;;;;;;;;;;-145.06;0.00;60892.56;6090944;22;19911;-91
2023/09/06 01:20:29;;;;;;;;;;;;;;;-145.06;0.00;60892.56;6091003;22;19982;-93
2023/09/06 01:23:25;;;;;;;;;;;;;;;-145.06;0.00;60892.56;6091002;22;19906;-91
2023/09/06 01:26:05;;;;;;;;;;;;;;;-145.06;0.00;60892.56;6090536;22;20194;-91
2023/09/06 01:28:44;;;;;;;;;;;;;;;-145.06;0.00;60892.56;6091457;22;19907;-94
2023/09/06 01:31:23;;;;;;;;;;;;;;;-145.06;0.00;60892.56;6090389;22;19911;-93
2023/09/06 01:34:02;;;;;;;;;;;;;;;-145.06;0.00;60892.56;6090857;22;19907;-91
2023/09/06 01:36:41;;;;;;;;;;;;;;;-145.06;0.00;60892.56;6102036;22;19907;-92
2023/09/06 01:39:20;;;;;;;;;;;;;;;-145.06;0.00;60892.56;6090908;22;19907;-92
2023/09/06 01:41:59;;;;;;;;;;;;;;;-145.06;0.00;60892.56;6092066;22;19907;-92
2023/09/06 01:44:37;;;;;;;;;;;;;;;-145.06;0.00;60892.56;6090787;22;20226;-92
2023/09/06 01:47:16;;;;;;;;;;;;;;;-145.06;0.00;60892.56;6090590;22;19938;-92
2023/09/06 01:49:57;;;;;;;;;;;;;;;-145.06;0.00;60892.56;6091059;22;19990;-93
2023/09/06 01:52:36;;;;;;;;;;;;;;;-145.06;0.00;60892.56;6090301;22;20214;-91
2023/09/06 01:55:15;;;;;;;;;;;;;;;-145.06;0.00;60892.56;6090909;22;19907;-92
2023/09/06 01:57:54;;;;;;;;;;;;;;;-145.06;0.00;60892.56;6092864;22;19911;-91
2023/09/06 02:00:36;;;;;;;;;;;;;;;-145.06;0.00;60892.56;6093317;22;19911;-92
2023/09/06 02:03:18;;;;;;;;;;;;;;;-145.06;0.00;60892.56;6093764;22;19907;-92
2023/09/06 02:05:57;;;;;;;;;;;;;;;-145.06;0.00;60892.56;6093689;22;20218;-92
2023/09/06 02:08:36;;;;;;;;;;;;;;;-145.06;0.00;60892.56;6093544;22;19911;-93
2023/09/06 02:11:15;;;;;;;;;;;;;;;-145.06;0.00;60892.56;6093544;22;19907;-92
2023/09/06 02:13:54;;;;;;;;;;;;;;;-145.06;0.00;60892.56;6093848;22;19907;-92
2023/09/06 02:16:33;;;;;;;;;;;;;;;-145.06;0.00;60892.56;6094634;22;19982;-92
2023/09/06 02:19:11;;;;;;;;;;;;;;;-145.06;0.00;60892.56;6095534;22;20318;-91
2023/09/06 02:21:52;;;;;;;;;;;;;;;-145.06;0.00;60892.56;6092755;22;19907;-91
2023/09/06 02:24:31;;;;;;;;;;;;;;;-145.06;0.00;60892.56;6093292;22;19907;-92
2023/09/06 02:27:12;;;;;;;;;;;;;;;-145.06;0.00;60892.56;6091692;22;19915;-91
2023/09/06 02:29:53;;;;;;;;;;;;;;;-145.06;0.00;60892.56;6092565;22;19933;-92
2023/09/06 02:32:32;;;;;;;;;;;;;;;-145.06;0.00;60892.56;6092983;22;19938;-92
2023/09/06 02:35:11;;;;;;;;;;;;;;;-145.06;0.00;60892.56;6092936;22;19932;-92
2023/09/06 02:37:50;;;;;;;;;;;;;;;-145.06;0.00;60892.56;6092827;22;19907;-92
2023/09/06 02:40:29;;;;;;;;;;;;;;;-145.06;0.00;60892.56;6092695;22;19907;-91
2023/09/06 02:43:10;;;;;;;;;;;;;;;-145.06;0.00;60892.56;6092128;22;20333;-93
2023/09/06 02:45:53;;;;;;;;;;;;;;;-145.06;0.00;60892.56;6092720;22;19911;-92
2023/09/06 02:48:33;;;;;;;;;;;;;;;-145.06;0.00;60892.56;6092711;22;19911;-91
2023/09/06 02:51:15;;;;;;;;;;;;;;;-145.06;0.00;60892.56;6091147;22;19907;-92
2023/09/06 02:53:56;;;;;;;;;;;;;;;-145.06;0.00;60892.56;6091673;22;19907;-92
2023/09/06 02:56:37;;;;;;;;;;;;;;;-145.06;0.00;60892.56;6091675;22;19911;-92
2023/09/06 02:59:17;;;;;;;;;;;;;;;-145.06;0.00;60892.56;6092277;22;19907;-91
2023/09/06 03:01:59;;;;;;;;;;;;;;;-145.06;0.00;60892.56;6092135;22;19907;-93
2023/09/06 03:04:37;;;;;;;;;;;;;;;-145.06;0.00;60892.56;6092576;22;19907;-93
2023/09/06 03:07:18;;;;;;;;;;;;;;;-145.06;0.00;60892.56;6092548;22;19911;-93
2023/09/06 03:09:57;;;;;;;;;;;;;;;-145.06;0.00;60892.56;6092001;22;19907;-92
2023/09/06 03:12:38;;;;;;;;;;;;;;;18.46;0.00;60892.56;6092261;22;19903;-91
2023/09/06 03:15:18;;;;;;;;;;;;;;;18.44;0.00;60892.56;6091972;22;20313;-92
2023/09/06 03:18:01;;;;;;;;;;;;;;;18.41;0.00;60892.56;6091946;22;19982;-92
2023/09/06 03:20:43;;;;;;;;;;;;;;;18.40;0.00;60892.56;6091714;22;19907;-90
2023/09/06 03:23:25;;;;;;;;;;;;;;;-145.06;0.00;60892.56;6092357;22;19907;-93
2023/09/06 03:26:05;;;;;;;;;;;;;;;-145.06;0.00;60892.56;6093691;22;19907;-91
2023/09/06 03:29:25;;;;;;;;;;;;;;;;;;;;;
2023/09/06 03:37:08;;;;;;;;;;;;;;;-145.06;0.00;60892.56;6066637;22;20337;-91
2023/09/06 03:39:53;;;;;;;;;;;;;;;-145.06;0.00;60892.56;6094558;22;20467;-92
2023/09/06 03:42:34;;;;;;;;;;;;;;;-145.06;0.00;60892.56;6065280;22;19962;-91
2023/09/06 03:45:21;;;;;;;;;;;;;;;-145.06;0.00;60892.56;6064066;22;19911;-91
2023/09/06 03:48:00;;;;;;;;;;;;;;;-145.06;0.00;60892.56;6064521;22;19911;-90
2023/09/06 03:50:39;;;;;;;;;;;;;;;-145.06;0.00;60892.56;6064376;22;19911;-91
2023/09/06 03:53:18;;;;;;;;;;;;;;;-145.06;0.00;60892.56;6065492;22;19908;-90
2023/09/06 03:56:03;;;;;;;;;;;;;;;-145.06;0.00;60892.56;6066609;22;19908;-93
2023/09/06 03:58:44;;;;;;;;;;;;;;;-145.06;0.00;60892.56;6065298;22;19907;-93
2023/09/06 04:01:25;;;;;;;;;;;;;;;-145.06;0.00;60892.56;6065122;22;20226;-93
2023/09/06 04:04:04;;;;;;;;;;;;;;;-145.06;0.00;60892.56;6065477;22;19908;-92
2023/09/06 04:06:43;;;;;;;;;;;;;;;-145.06;0.00;60892.56;6076018;22;19911;-94
2023/09/06 04:09:28;;;;;;;;;;;;;;;-145.06;0.00;60892.56;6066095;22;19927;-92
2023/09/06 04:12:07;;;;;;;;;;;;;;;-145.06;0.00;60892.56;6064392;22;19986;-94
2023/09/06 04:14:48;;;;;;;;;;;;;;;-145.06;0.00;60892.56;6064476;22;19908;-94
2023/09/06 04:17:27;;;;;;;;;;;;;;;-145.06;0.00;60892.56;6065103;22;19907;-94
2023/09/06 04:20:23;;;;;;;;;;;;;;;-145.06;0.00;60892.56;6074134;22;22568;-93
2023/09/06 04:23:06;;;;;;;;;;;;;;;-145.06;0.00;60892.56;6065190;22;19907;-94
2023/09/06 04:25:48;;;;;;;;;;;;;;;-145.06;0.00;60892.56;6066209;22;19907;-93
2023/09/06 04:28:36;;;;;;;;;;;;;;;-145.06;0.00;60892.56;6064615;22;19939;-94
2023/09/06 04:31:27;;;;;;;;;;;;;;;;;;;;;
2023/09/06 04:34:26;;;;;;;;;;;;;;;-145.06;0.00;60892.56;6076138;22;19937;-90
2023/09/06 04:37:18;;;;;;;;;;;;;;;;;;;;;
2023/09/06 04:39:59;;;;;;;;;;;;;;;-145.06;0.00;60892.56;6076685;22;19907;-93
2023/09/06 04:42:44;;;;;;;;;;;;;;;-145.06;0.00;60892.56;6065094;22;20202;-94
2023/09/06 04:45:39;;;;;;;;;;;;;;;18.48;0.00;60892.56;6065782;22;19911;-93
2023/09/06 04:48:47;;;;;;;;;;;;;;;18.48;0.00;60892.56;6064874;22;19911;-93
2023/09/06 04:55:08;;;;;;;;;;;;;;;-145.06;0.00;60892.56;6052517;22;19907;-94
2023/09/06 04:58:42;;;;;;;;;;;;;;;;;;;;;
2023/09/06 05:05:03;;;;;;;;;;;;;;;-145.06;0.00;60892.56;6062230;22;19934;-94
2023/09/06 05:08:25;;;;;;;;;;;;;;;;;;;;;
2023/09/06 05:11:40;;;;;;;;;;;;;;;;;;;;;
2023/09/06 05:18:01;;;;;;;;;;;;;;;;;;;;;
2023/09/06 05:21:01;;;;;;;;;;;;;;;;;;;;;
2023/09/06 05:24:09;;;;;;;;;;;;;;;-145.06;0.00;60892.56;6075257;22;19907;-94
2023/09/06 05:27:10;;;;;;;;;;;;;;;;;;;;;
2023/09/06 05:33:26;;;;;;;;;;;;;;;-145.06;0.00;60892.56;6036400;22;19911;-94
2023/09/06 05:36:42;;;;;;;;;;;;;;;-145.06;0.00;60892.56;6064034;22;19907;-93
2023/09/06 05:49:48;;;;;;;;;;;;;;;-145.06;0.00;60892.56;6043936;22;19908;-92
2023/09/06 05:52:57;;;;;;;;;;;;;;;;;;;;;
2023/09/06 05:59:23;;;;;;;;;;;;;;;;;;;;;
2023/09/06 06:29:18;;;;;;;;;;;;;;;-145.06;0.00;60892.56;6072866;22;19911;-93
2023/09/06 06:35:58;;;;;;;;;;;;;;;;;;;;;
2023/09/06 06:39:10;;;;;;;;;;;;;;;-145.06;0.00;60892.56;5986718;23;20248;-93
2023/09/06 06:42:24;;;;;;;;;;;;;;;-145.06;0.00;60892.56;5955922;23;19908;-93
2023/09/06 06:45:35;;;;;;;;;;;;;;;;;;;;;
2023/09/06 06:58:58;;;;;;;;;;;;;;;;;;;;;
2023/09/06 07:08:52;;;;;;;;;;;;;;;;;;;;;
2023/09/06 07:29:57;;;;;;;;;;;;;;;;;;;;;
2023/09/06 07:38:45;;;;;;;;;;;;;;;-145.06;0.00;60892.56;5931193;23;19913;-92
2023/09/06 07:52:14;;;;;;;;;;;;;;;;;;;;;
2023/09/06 08:05:17;;;;;;;;;;;;;;;;;;;;;
2023/09/06 08:17:56;;;;;;;;;;;;;;;-145.06;0.00;60892.56;6043199;22;19908;-92
2023/09/06 08:59:36;;;;;;;;;;;;;;;-145.06;0.00;60892.56;6027911;22;19907;-92
2023/09/06 09:02:46;;;;;;;;;;;;;;;;;;;;;
2023/09/06 09:09:16;;;;;;;;;;;;;;;;;;;;;
2023/09/06 09:15:39;;;;;;;;;;;;;;;;;;;;;
2023/09/06 09:18:47;;;;;;;;;;;;;;;-145.06;0.00;60892.56;6072407;22;19907;-92
2023/09/06 09:29:11;;;;;;;;;;;;;;;-145.06;0.00;60892.56;5967710;23;19911;-92
2023/09/06 09:32:20;;;;;;;;;;;;;;;-145.06;0.00;60892.56;6018549;23;19908;-92
2023/09/06 09:38:32;;;;;;;;;;;;;;;;;;;;;
2023/09/06 09:41:49;;;;;;;;;;;;;;;;;;;;;
2023/09/06 09:51:26;;;;;;;;;;;;;;;-145.06;0.00;60892.56;5990707;22;19916;-91
2023/09/06 09:54:51;;;;;;;;;;;;;;;;;;;;;
2023/09/06 09:57:31;;;;;;;;;;;;;;;-145.06;0.00;60892.56;5974431;22;19935;-92
2023/09/06 10:00:49;;;;;;;;;;;;;;;;;;;;;
2023/09/06 10:10:20;;;;;;;;;;;;;;;;;;;;;
2023/09/06 10:13:26;;;;;;;;;;;;;;;;;;;;;
2023/09/06 10:23:41;;;;;;;;;;;;;;;;;;;;;
2023/09/06 10:26:40;;;;;;;;;;;;;;;;;;;;;
2023/09/06 10:29:52;;;;;;;;;;;;;;;;;;;;;
2023/09/06 10:40:28;;;;;;;;;;;;;;;;;;;;;
2023/09/06 10:50:15;;;;;;;;;;;;;;;-145.06;0.00;60892.56;6011685;23;19912;-94
2023/09/06 10:53:18;;;;;;;;;;;;;;;187.52;0.00;60892.56;6018675;22;19908;-93
2023/09/06 10:59:19;;;;;;;;;;;;;;;-145.06;0.00;60892.56;6048608;22;19907;-94
2023/09/06 11:07:18;;;;;;;;;;;;;;;-145.06;0.00;60892.56;6053454;22;20269;-92
2023/09/06 11:18:09;;;;;;;;;;;;;;;;;;;;;
2023/09/06 11:28:21;;;;;;;;;;;;;;;-145.06;0.00;60892.56;5928216;23;19913;-91
2023/09/06 11:31:10;;;;;;;;;;;;;;;;;;;;;
2023/09/06 11:40:39;;;;;;;;;;;;;;;-145.06;0.00;60892.56;6011777;23;20195;-91
2023/09/06 11:46:32;;;;;;;;;;;;;;;-145.06;0.00;60892.56;6104111;22;20492;-91
2023/09/06 11:49:14;;;;;;;;;;;;;;;-145.06;0.00;60892.56;6092499;22;19911;-93
2023/09/06 11:52:09;;;;;;;;;;;;;;;-145.06;0.00;60892.56;6091854;22;19927;-92
2023/09/06 11:55:09;;;;;;;;;;;;;;;-145.06;0.00;60892.56;6091792;22;19907;-91
2023/09/06 11:57:56;;;;;;;;;;;;;;;-145.06;0.00;60892.56;6092203;22;19907;-91
2023/09/06 12:01:01;;;;;;;;;;;;;;;-145.06;0.00;60892.56;6095520;22;19907;-92
2023/09/06 12:03:47;;;;;;;;;;;;;;;-145.06;0.00;60892.56;6094297;22;19907;-93
2023/09/06 12:06:32;;;;;;;;;;;;;;;-145.06;0.00;60892.56;6095092;22;20325;-93
2023/09/06 12:09:24;;;;;;;;;;;;;;;-145.06;0.00;60892.56;6094836;22;19915;-91
2023/09/06 12:12:07;;;;;;;;;;;;;;;-145.06;0.00;60892.56;6095660;22;20313;-92
2023/09/06 12:15:19;;;;;;;;;;;;;;;;;;;;;
2023/09/06 12:17:59;;;;;;;;;;;;;;;-145.06;0.00;60892.56;6106846;22;19907;-93
2023/09/06 12:20:40;;;;;;;;;;;;;;;-145.06;0.00;60892.56;6094619;22;19907;-93
2023/09/06 12:23:32;;;;;;;;;;;;;;;-145.06;0.00;60892.56;6094871;22;19907;-93
2023/09/06 12:26:27;;;;;;;;;;;;;;;-145.06;0.00;60892.56;6094616;22;19907;-93
2023/09/06 12:29:25;;;;;;;;;;;;;;;-145.06;0.00;60892.56;6095166;22;19911;-91
2023/09/06 13:47:22;;;;;;;;;;;;;;;-145.06;0.00;60892.56;6095038;22;19930;-93
2023/09/06 13:50:04;;;;;;;;;;;;;;;-145.06;0.00;60892.56;6094916;22;19907;-95
2023/09/06 13:52:43;;;;;;;;;;;;;;;-145.06;0.00;60892.56;6094298;22;19903;-95
2023/09/06 13:55:25;;;;;;;;;;;;;;;-145.06;0.00;60892.56;6093509;22;19911;-92
2023/09/06 13:58:04;;;;;;;;;;;;;;;-145.06;0.00;60892.56;6105837;22;19907;-94
2023/09/06 14:00:43;;;;;;;;;;;;;;;-145.06;0.00;60892.56;6092285;22;20222;-94
2023/09/06 14:03:22;;;;;;;;;;;;;;;-145.06;0.00;60892.56;6090720;22;20499;-95
2023/09/06 14:06:07;;;;;;;;;;;;;;;-145.06;0.00;60892.56;6093813;22;20270;-95
2023/09/06 14:09:16;;;;;;;;;;;;;;;-145.06;0.00;60892.56;6093984;22;19911;-95
2023/09/06 14:11:55;;;;;;;;;;;;;;;-145.06;0.00;60892.56;5982189;22;19951;-94
2023/09/06 14:14:34;;;;;;;;;;;;;;;-145.06;0.00;60892.56;6091484;22;20333;-92
2023/09/06 14:17:13;;;;;;;;;;;;;;;-145.06;0.00;60892.56;6103154;22;19907;-92
2023/09/06 14:19:52;;;;;;;;;;;;;;;-145.06;0.00;60892.56;6093727;22;20459;-94
2023/09/06 14:22:31;;;;;;;;;;;;;;;-145.06;0.00;60892.56;6092864;22;19903;-92
2023/09/06 14:25:10;;;;;;;;;;;;;;;-145.06;0.00;60892.56;6092420;22;19911;-94
2023/09/06 14:27:49;;;;;;;;;;;;;;;-145.06;0.00;60892.56;6101649;22;19914;-93
2023/09/06 14:30:28;;;;;;;;;;;;;;;-145.06;0.00;60892.56;6091285;22;19907;-93
2023/09/06 14:33:08;;;;;;;;;;;;;;;-145.06;0.00;60892.56;6092700;22;19910;-93
2023/09/06 14:35:47;;;;;;;;;;;;;;;-145.06;0.00;60892.56;6094574;22;19911;-94
2023/09/06 14:38:26;;;;;;;;;;;;;;;-145.06;0.00;60892.56;6096587;22;19907;-93
2023/09/06 14:41:18;;;;;;;;;;;;;;;-145.06;0.00;60892.56;6097514;22;19907;-93
2023/09/06 14:58:02;;;;;;;;;;;;;;;34.07;0.00;60892.56;6060394;22;19934;-89
2023/09/06 15:00:43;;;;;;;;;;;;;;;-145.06;0.00;60892.56;6092658;22;19927;-91
2023/09/06 15:03:25;;;;;;;;;;;;;;;-145.06;0.00;60892.56;6091988;22;19907;-93
2023/09/06 15:06:05;;;;;;;;;;;;;;;-145.06;0.00;60892.56;6094213;22;19907;-93
2023/09/06 15:08:46;;;;;;;;;;;;;;;-145.06;0.00;60892.56;6094053;22;19911;-94
2023/09/06 15:11:38;;;;;;;;;;;;;;;-145.06;0.00;60892.56;6093174;22;19907;-95
2023/09/06 15:14:22;;;;;;;;;;;;;;;62.66;0.00;60892.56;6093914;22;19907;-93
2023/09/06 15:17:01;;;;;;;;;;;;;;;-145.06;0.00;60892.56;6092591;22;19907;-94
2023/09/06 15:23:18;;;;;;;;;;;;;;;-145.06;0.00;60892.56;6081375;22;20339;-94
2023/09/06 15:29:42;;;;;;;;;;;;;;;-145.06;0.00;60892.56;6102802;22;19935;-91
2023/09/06 15:32:37;;;;;;;;;;;;;;;-145.06;0.00;60892.56;6089658;22;19907;-96
2023/09/06 15:35:16;;;;;;;;;;;;;;;-145.06;0.00;60892.56;6090626;22;19910;-92
2023/09/06 15:37:56;;;;;;;;;;;;;;;-145.06;0.00;60892.56;6090054;22;19907;-93
2023/09/06 15:40:35;;;;;;;;;;;;;;;-145.06;0.00;60892.56;6089600;22;19946;-93
2023/09/06 15:43:14;;;;;;;;;;;;;;;-145.06;0.00;60892.56;6088968;22;20356;-93
2023/09/06 15:45:53;;;;;;;;;;;;;;;-145.06;0.00;60892.56;6089133;22;19907;-93
2023/09/06 15:48:32;;;;;;;;;;;;;;;-145.06;0.00;60892.56;6089413;22;20349;-93
2023/09/06 15:51:11;;;;;;;;;;;;;;;-145.06;0.00;60892.56;6088491;22;19946;-93
2023/09/06 15:53:50;;;;;;;;;;;;;;;-145.06;0.00;60892.56;6088840;22;19907;-93
2023/09/06 15:56:29;;;;;;;;;;;;;;;-145.06;0.00;60892.56;6088378;22;20277;-92
2023/09/06 15:59:09;;;;;;;;;;;;;;;-145.06;0.00;60892.56;6100051;22;20329;-93
2023/09/06 16:01:48;;;;;;;;;;;;;;;-145.06;0.00;60892.56;6089040;22;19915;-92
2023/09/06 16:04:27;;;;;;;;;;;;;;;-145.06;0.00;60892.56;6089361;22;19907;-92
2023/09/06 16:07:07;;;;;;;;;;;;;;;-145.06;0.00;60892.56;6088173;22;19911;-93
2023/09/06 16:09:45;;;;;;;;;;;;;;;-145.06;0.00;60892.56;6084481;22;19911;-91
2023/09/06 16:12:24;;;;;;;;;;;;;;;-145.06;0.00;60892.56;6095480;22;19974;-91
2023/09/06 16:15:04;;;;;;;;;;;;;;;-145.06;0.00;60892.56;6083682;22;19906;-91
2023/09/06 16:17:44;;;;;;;;;;;;;;;-145.06;0.00;60892.56;6083428;22;20210;-91
2023/09/06 16:20:23;;;;;;;;;;;;;;;-145.06;0.00;60892.56;6080474;22;19911;-91
2023/09/06 16:23:02;;;;;;;;;;;;;;;-145.06;0.00;60892.56;6090499;22;19911;-91
2023/09/06 16:25:41;;;;;;;;;;;;;;;-145.06;0.00;60892.56;6083964;22;19911;-91
2023/09/06 16:28:20;;;;;;;;;;;;;;;-145.06;0.00;60892.56;6086186;22;20333;-92
2023/09/06 16:31:00;;;;;;;;;;;;;;;-145.06;0.00;60892.56;6086535;22;20387;-91
2023/09/06 16:33:39;;;;;;;;;;;;;;;-145.06;0.00;60892.56;6093094;22;19978;-95
2023/09/06 16:37:03;;;;;;;;;;;;;;;;;;;;;
2023/09/06 16:51:54;;;;;;;;;;;;;;;-145.06;0.00;60892.56;6021324;23;19923;-92
2023/09/06 16:54:34;;;;;;;;;;;;;;;-145.06;0.00;60892.56;6007949;23;20394;-92
2023/09/06 16:57:16;;;;;;;;;;;;;;;-145.06;0.00;60892.56;6050948;22;19911;-93
2023/09/06 17:00:00;;;;;;;;;;;;;;;-145.06;0.00;60892.56;6061987;22;20317;-94
2023/09/06 17:02:39;;;;;;;;;;;;;;;-145.06;0.00;60892.56;6060926;22;20393;-92
2023/09/06 17:05:19;;;;;;;;;;;;;;;-145.06;0.00;60892.56;6062625;22;19942;-92
2023/09/06 17:07:58;;;;;;;;;;;;;;;-145.06;0.00;60892.56;6061971;22;20432;-93
2023/09/06 17:10:38;;;;;;;;;;;;;;;29.87;0.00;60892.56;6061789;22;19907;-92
2023/09/06 17:13:18;;;;;;;;;;;;;;;-145.06;0.00;60892.56;6062025;22;19907;-92
2023/09/06 17:15:59;;;;;;;;;;;;;;;-145.06;0.00;60892.56;6060490;22;19907;-92
2023/09/06 17:18:39;;;;;;;;;;;;;;;-145.06;0.00;60892.56;6060021;22;20211;-92
2023/09/06 17:21:17;;;;;;;;;;;;;;;-145.06;0.00;60892.56;6070533;22;19907;-94
2023/09/06 17:23:57;;;;;;;;;;;;;;;-145.06;0.00;60892.56;6059786;22;19907;-93
2023/09/06 17:26:41;;;;;;;;;;;;;;;-145.06;0.00;60892.56;6060220;22;19930;-91
2023/09/06 17:29:20;;;;;;;;;;;;;;;-145.06;0.00;60892.56;6058911;22;19911;-92
2023/09/06 17:32:04;;;;;;;;;;;;;;;-145.06;0.00;60892.56;6059378;22;19911;-90
2023/09/06 17:34:43;;;;;;;;;;;;;;;-145.06;0.00;60892.56;6059444;22;20276;-91
2023/09/06 17:37:22;;;;;;;;;;;;;;;-145.06;0.00;60892.56;6059279;22;19939;-92
2023/09/06 17:40:10;;;;;;;;;;;;;;;-145.06;0.00;60892.56;6058817;22;19907;-91
2023/09/06 17:42:49;;;;;;;;;;;;;;;-145.06;0.00;60892.56;6059869;22;20112;-93
2023/09/06 17:45:28;;;;;;;;;;;;;;;-145.06;0.00;60892.56;6061841;22;19903;-92
2023/09/06 17:48:10;;;;;;;;;;;;;;;-145.06;0.00;60892.56;6059832;22;19912;-92
2023/09/06 17:50:52;;;;;;;;;;;;;;;-145.06;0.00;60892.56;6059747;22;19939;-92
2023/09/06 17:53:35;;;;;;;;;;;;;;;-145.06;0.00;60892.56;6059241;22;19907;-91
2023/09/06 17:56:16;;;;;;;;;;;;;;;-145.06;0.00;60892.56;6059077;22;19908;-93
2023/09/06 17:58:56;;;;;;;;;;;;;;;-145.06;0.00;60892.56;6058661;22;19911;-92
2023/09/06 18:01:35;;;;;;;;;;;;;;;-145.06;0.00;60892.56;6058943;22;19923;-91
2023/09/06 18:04:14;;;;;;;;;;;;;;;-145.06;0.00;60892.56;6059424;22;19911;-92
2023/09/06 18:06:53;;;;;;;;;;;;;;;-145.06;0.00;60892.56;6058716;22;19907;-92
2023/09/06 18:09:33;;;;;;;;;;;;;;;-145.06;0.00;60892.56;6059168;22;20215;-93
2023/09/06 18:12:12;;;;;;;;;;;;;;;-145.06;0.00;60892.56;6059020;22;20310;-92
2023/09/06 18:14:56;;;;;;;;;;;;;;;-145.06;0.00;60892.56;6058582;22;19907;-91
2023/09/06 18:17:38;;;;;;;;;;;;;;;-145.06;0.00;60892.56;6059913;22;19908;-91
2023/09/06 18:20:17;;;;;;;;;;;;;;;-145.06;0.00;60892.56;6060217;22;19907;-93
2023/09/06 18:22:56;;;;;;;;;;;;;;;-145.06;0.00;60892.56;6059650;22;19911;-92
2023/09/06 18:25:37;;;;;;;;;;;;;;;-145.06;0.00;60892.56;6059436;22;20301;-91
2023/09/06 18:28:16;;;;;;;;;;;;;;;-145.06;0.00;60892.56;6059180;22;20334;-91
2023/09/06 18:30:55;;;;;;;;;;;;;;;-145.06;0.00;60892.56;6059418;22;19908;-92
2023/09/06 18:33:35;;;;;;;;;;;;;;;-145.06;0.00;60892.56;6059909;22;19907;-93
2023/09/06 18:36:14;;;;;;;;;;;;;;;-145.06;0.00;60892.56;6059132;22;19907;-91
2023/09/06 18:38:53;;;;;;;;;;;;;;;-145.06;0.00;60892.56;6059710;22;20223;-92
2023/09/06 18:41:32;;;;;;;;;;;;;;;-145.06;0.00;60892.56;6059139;22;19907;-93
2023/09/06 18:44:11;;;;;;;;;;;;;;;-145.06;0.00;60892.56;6059121;22;19912;-91
2023/09/06 18:46:51;;;;;;;;;;;;;;;187.52;0.00;60892.56;6059625;22;19989;-92
2023/09/06 18:49:35;;;;;;;;;;;;;;;-145.06;0.00;60892.56;6059933;22;20026;-92
2023/09/06 18:52:13;;;;;;;;;;;;;;;187.52;0.00;60892.56;6060866;22;19990;-92
2023/09/06 18:54:52;;;;;;;;;;;;;;;-145.06;0.00;60892.56;6060024;22;19911;-93
2023/09/06 18:57:35;;;;;;;;;;;;;;;187.52;0.00;60892.56;6059587;22;19907;-92
2023/09/06 19:00:21;;;;;;;;;;;;;;;-145.06;0.00;60892.56;6061005;22;20309;-92
2023/09/06 19:03:05;;;;;;;;;;;;;;;187.52;0.00;60892.56;6061877;22;19907;-92
2023/09/06 19:05:43;;;;;;;;;;;;;;;-145.06;0.00;60892.56;6062890;22;19922;-94
2023/09/06 19:08:22;;;;;;;;;;;;;;;187.52;0.00;60892.56;6062659;22;19911;-94
2023/09/06 19:11:02;;;;;;;;;;;;;;;-145.06;0.00;60892.56;6062436;22;20214;-93
2023/09/06 19:13:40;;;;;;;;;;;;;;;-145.06;0.00;60892.56;6062671;22;19907;-93
2023/09/06 19:16:24;;;;;;;;;;;;;;;-145.06;0.00;60892.56;6063081;22;19907;-95
2023/09/06 19:19:03;;;;;;;;;;;;;;;-145.06;0.00;60892.56;6062238;22;19907;-92
2023/09/06 19:21:42;;;;;;;;;;;;;;;-145.06;0.00;60892.56;6061852;22;19907;-92
2023/09/06 19:27:40;;;;;;;;;;;;;;;;;;;;;
2023/09/06 19:30:32;;;;;;;;;;;;;;;;;;;;;
2023/09/06 19:33:34;;;;;;;;;;;;;;;;;;;;;
2023/09/06 19:36:43;;;;;;;;;;;;;;;-145.06;0.00;60892.56;6073922;22;19908;-93
2023/09/06 19:39:21;;;;;;;;;;;;;;;-145.06;0.00;60892.56;6062989;22;19908;-93
2023/09/06 19:42:00;;;;;;;;;;;;;;;-145.06;0.00;60892.56;6062170;22;19907;-92
2023/09/06 19:44:52;;;;;;;;;;;;;;;-145.06;0.00;60892.56;6063163;22;20269;-93
2023/09/06 19:47:31;;;;;;;;;;;;;;;-145.06;0.00;60892.56;6061989;22;19911;-94
2023/09/06 19:50:12;;;;;;;;;;;;;;;-145.06;0.00;60892.56;6062076;22;19908;-92
2023/09/06 19:52:51;;;;;;;;;;;;;;;-145.06;0.00;60892.56;6061224;22;19903;-93
2023/09/06 19:55:44;;;;;;;;;;;;;;;-145.06;0.00;60892.56;6062205;22;19980;-93
2023/09/06 19:58:25;;;;;;;;;;;;;;;-145.06;0.00;60892.56;6062196;22;19907;-92
2023/09/06 20:01:07;;;;;;;;;;;;;;;-145.06;0.00;60892.56;6062121;22;19907;-93
2023/09/06 20:03:46;;;;;;;;;;;;;;;-145.06;0.00;60892.56;6062003;22;20310;-93
2023/09/06 20:06:25;;;;;;;;;;;;;;;-145.06;0.00;60892.56;6062395;22;20215;-92
2023/09/06 20:09:04;;;;;;;;;;;;;;;-145.06;0.00;60892.56;6061727;22;19911;-92
2023/09/06 20:11:43;;;;;;;;;;;;;;;-145.06;0.00;60892.56;6061318;22;20377;-93
2023/09/06 20:14:24;;;;;;;;;;;;;;;-145.06;0.00;60892.56;6061741;22;19907;-93
2023/09/06 20:17:04;;;;;;;;;;;;;;;-145.06;0.00;60892.56;6061400;22;19907;-93
2023/09/06 20:19:42;;;;;;;;;;;;;;;-145.06;0.00;60892.56;6061935;22;19922;-94
2023/09/06 20:22:24;;;;;;;;;;;;;;;-145.06;0.00;60892.56;6060358;22;19965;-93
2023/09/06 20:25:05;;;;;;;;;;;;;;;-145.06;0.00;60892.56;6061433;22;20318;-93
2023/09/06 20:27:44;;;;;;;;;;;;;;;-145.06;0.00;60892.56;6061079;22;19911;-93
2023/09/06 20:30:22;;;;;;;;;;;;;;;-145.06;0.00;60892.56;6061253;22;19943;-92
2023/09/06 20:33:03;;;;;;;;;;;;;;;-145.06;0.00;60892.56;6060750;22;19907;-92
2023/09/06 20:35:42;;;;;;;;;;;;;;;-145.06;0.00;60892.56;6060494;22;19907;-93
2023/09/06 20:38:22;;;;;;;;;;;;;;;-145.06;0.00;60892.56;6060904;22;20218;-92
2023/09/06 20:41:02;;;;;;;;;;;;;;;-145.06;0.00;60892.56;6060526;22;20250;-92
2023/09/06 20:43:41;;;;;;;;;;;;;;;-145.06;0.00;60892.56;6062134;22;19912;-93
2023/09/06 20:46:20;;;;;;;;;;;;;;;-145.06;0.00;60892.56;6061411;22;19907;-93
2023/09/06 20:48:59;;;;;;;;;;;;;;;-145.06;0.00;60892.56;6061346;22;20234;-93
2023/09/06 20:51:38;;;;;;;;;;;;;;;-145.06;0.00;60892.56;6060811;22;19907;-93
2023/09/06 20:54:17;;;;;;;;;;;;;;;-145.06;0.00;60892.56;6061079;22;19907;-93
2023/09/06 20:56:56;;;;;;;;;;;;;;;-145.06;0.00;60892.56;6061075;22;19927;-93
2023/09/06 20:59:35;;;;;;;;;;;;;;;-145.06;0.00;60892.56;6061428;22;19907;-92
2023/09/06 21:02:14;;;;;;;;;;;;;;;23.65;0.00;60892.56;6061041;22;19907;-93
2023/09/06 21:04:55;;;;;;;;;;;;;;;23.57;0.00;60892.56;6062414;22;19908;-94
2023/09/06 21:07:35;;;;;;;;;;;;;;;23.50;0.00;60892.56;6061552;22;19911;-93
2023/09/06 21:10:14;;;;;;;;;;;;;;;23.45;0.00;60892.56;6061614;22;19938;-94